Clements, Minnesota
Current Conditions -  °F | °C
As of 9:53 PM on Friday 24 Oct 2014 (Local Time) from KRWF Reporting Station
Clear Clear  
Wind Chill: 62°   Ceiling: Unl
Heat Index: 62°   Visibility: 10mi
Dew Point: 40°   Wind: 9mph
Humidity: 44%   Direction: 260°W
Pressure: 29.89"   Gusts: NA
Location:  44.38°N, 95.05°W
Report Text: KRWF 250253Z AUTO 26008KT 10SM CLR 17/04 A2989 RMK AO2 SLP123 T01670044 51006
Loading
Personal Weather Stations






























Interactive Weather Map
Tropical Storm Tracking
New forecast layout! Learn more

10-Day Weather Forecast

Advertisements
Track Severe Weather on mobile